createdAt,value
2016-04-12T00:00:53.612Z,0
2016-04-12T00:02:06.334Z,0
2016-04-12T00:03:06.353Z,0
2016-04-12T00:04:12.855Z,0
2016-04-12T00:05:19.358Z,0
2016-04-12T00:06:19.391Z,0
2016-04-12T00:07:25.035Z,0
2016-04-12T00:08:26.449Z,0
2016-04-12T00:09:25.270Z,0
2016-04-12T00:12:08.966Z,0
2016-04-12T00:13:09.172Z,0
2016-04-12T00:14:21.737Z,0
2016-04-12T00:15:09.099Z,0
2016-04-12T00:16:21.820Z,0
2016-04-12T00:17:21.963Z,0
2016-04-12T00:18:10.560Z,0
2016-04-12T00:19:21.985Z,0
2016-04-12T00:20:28.362Z,0
2016-04-12T00:21:09.161Z,0
2016-04-12T00:23:18.777Z,0
2016-04-12T00:25:10.141Z,0
2016-04-12T00:25:22.735Z,0
2016-04-12T00:27:25.382Z,0
2016-04-12T00:27:57.273Z,0
2016-04-12T00:28:38.105Z,0
2016-04-12T00:29:38.108Z,0
2016-04-12T00:30:38.108Z,0
2016-04-12T00:31:37.994Z,0
2016-04-12T00:32:50.735Z,0
2016-04-12T00:33:38.801Z,0
2016-04-12T00:34:38.225Z,0
2016-04-12T00:35:39.072Z,0
2016-04-12T00:36:38.231Z,0
2016-04-12T00:37:38.874Z,0
2016-04-12T00:38:51.049Z,0
2016-04-12T00:39:51.004Z,0
2016-04-12T00:40:57.507Z,0
2016-04-12T00:41:57.509Z,0
2016-04-12T00:43:04.013Z,0
2016-04-12T00:43:38.375Z,0
2016-04-12T00:44:38.439Z,0
2016-04-12T00:45:38.443Z,0
2016-04-12T00:46:38.617Z,0
2016-04-12T00:47:38.433Z,0
2016-04-12T00:48:38.450Z,0
2016-04-12T00:49:39.064Z,0
2016-04-12T00:50:38.722Z,0
2016-04-12T00:51:38.522Z,0
2016-04-12T00:52:38.524Z,0
2016-04-12T00:53:44.902Z,0
2016-04-12T00:54:38.545Z,0
2016-04-12T00:55:38.720Z,0
2016-04-12T00:56:44.910Z,0
2016-04-12T00:57:44.974Z,0
2016-04-12T00:58:38.650Z,0
2016-04-12T00:59:57.808Z,0
2016-04-12T01:00:38.670Z,0
2016-04-12T01:01:38.689Z,0
2016-04-12T01:02:38.957Z,0
2016-04-12T01:03:38.741Z,0
2016-04-12T01:04:38.837Z,0
2016-04-12T01:05:45.090Z,0
2016-04-12T01:06:39.062Z,0
2016-04-12T01:07:38.815Z,0
2016-04-12T01:08:45.207Z,0
2016-04-12T01:09:39.445Z,0
2016-04-12T01:10:58.073Z,0
2016-04-12T01:11:45.154Z,0
2016-04-12T01:12:38.906Z,0
2016-04-12T01:13:38.908Z,0
2016-04-12T01:14:39.161Z,0
2016-04-12T01:15:45.258Z,0
2016-04-12T01:16:38.964Z,0
2016-04-12T01:17:58.185Z,0
2016-04-12T01:18:45.281Z,0
2016-04-12T01:20:04.722Z,0
2016-04-12T01:20:51.802Z,0
2016-04-12T01:21:39.180Z,0
2016-04-12T01:22:39.074Z,0
2016-04-12T01:23:45.467Z,0
2016-04-12T01:24:39.110Z,0
2016-04-12T01:25:39.175Z,0
2016-04-12T01:26:45.444Z,0
2016-04-12T01:27:40.587Z,0
2016-04-12T01:28:58.371Z,0
2016-04-12T01:29:42.249Z,0
2016-04-12T01:30:39.266Z,0
2016-04-12T01:31:52.019Z,0
2016-04-12T01:32:52.038Z,0
2016-04-12T01:33:58.493Z,0
2016-04-12T01:34:58.496Z,0
2016-04-12T01:36:04.999Z,0
2016-04-12T01:37:04.986Z,0
2016-04-12T01:37:39.348Z,0
2016-04-12T01:39:10.679Z,0
2016-04-12T01:39:39.384Z,0
2016-04-12T01:40:39.403Z,0
2016-04-12T01:41:39.421Z,0
2016-04-12T01:42:40.845Z,0
2016-04-12T01:43:39.474Z,0
2016-04-12T01:44:52.195Z,0
2016-04-12T01:45:39.761Z,0
2016-04-12T01:46:58.903Z,0
2016-04-12T01:47:39.578Z,0
2016-04-12T01:48:40.019Z,0
2016-04-12T01:49:39.552Z,0
2016-04-12T01:50:39.586Z,0
2016-04-12T01:51:39.636Z,0
2016-04-12T01:52:39.607Z,0
2016-04-12T01:53:39.657Z,0
2016-04-12T01:54:39.660Z,0
2016-04-12T01:55:39.678Z,0
2016-04-12T01:56:39.697Z,0
2016-04-12T01:57:39.714Z,0
2016-04-12T01:58:46.013Z,0
2016-04-12T01:59:39.736Z,0
2016-04-12T02:00:46.238Z,0
2016-04-12T02:01:39.804Z,0
2016-04-12T02:02:39.869Z,0
2016-04-12T02:03:39.840Z,0
2016-04-12T02:04:46.108Z,0
2016-04-12T02:05:39.845Z,0
2016-04-12T02:06:39.879Z,0
2016-04-12T02:07:39.898Z,0
2016-04-12T02:08:46.181Z,0
2016-04-12T02:09:46.184Z,0
2016-04-12T02:10:39.967Z,0
2016-04-12T02:11:52.533Z,0
2016-04-12T02:12:40.004Z,0
2016-04-12T02:13:59.336Z,0
2016-04-12T02:14:40.041Z,0
2016-04-12T02:15:40.044Z,0
2016-04-12T02:16:40.047Z,0
2016-04-12T02:17:40.081Z,0
2016-04-12T02:18:52.865Z,0
2016-04-12T02:19:40.102Z,0
2016-04-12T02:20:59.339Z,0
2016-04-12T02:21:40.170Z,0
2016-04-12T02:23:11.485Z,0
2016-04-12T02:23:41.613Z,0
2016-04-12T02:24:40.256Z,0
2016-04-12T02:25:43.243Z,0
2016-04-12T02:26:46.496Z,0
2016-04-12T02:27:40.248Z,0
2016-04-12T02:28:41.766Z,0
2016-04-12T02:29:46.660Z,0
2016-04-12T02:30:40.318Z,0
2016-04-12T02:31:53.087Z,0
2016-04-12T02:32:46.621Z,0
2016-04-12T02:33:59.561Z,0
2016-04-12T02:34:53.127Z,0
2016-04-12T02:35:40.411Z,0
2016-04-12T02:36:40.444Z,0
2016-04-12T02:37:40.541Z,0
2016-04-12T02:38:40.449Z,0
2016-04-12T02:39:53.390Z,0
2016-04-12T02:40:53.205Z,0
2016-04-12T02:41:40.629Z,0
2016-04-12T02:42:43.554Z,0
2016-04-12T02:43:40.526Z,0
2016-04-12T02:44:41.373Z,0
2016-04-12T02:45:41.390Z,0
2016-04-12T02:46:40.581Z,0
2016-04-12T02:47:53.364Z,0
2016-04-12T02:48:40.758Z,0
2016-04-12T02:49:53.370Z,0
2016-04-12T02:50:42.091Z,0
2016-04-12T02:52:06.344Z,0
2016-04-12T02:52:43.784Z,0
2016-04-12T02:54:37.711Z,0
2016-04-12T02:54:50.305Z,0
2016-04-12T02:55:50.308Z,0
2016-04-12T02:56:56.638Z,0
2016-04-12T02:57:50.313Z,0
2016-04-12T02:59:03.174Z,0
2016-04-12T02:59:50.380Z,0
2016-04-12T03:00:50.430Z,0
2016-04-12T03:01:50.433Z,0
2016-04-12T03:02:50.435Z,0
2016-04-12T03:03:50.438Z,0
2016-04-12T03:04:50.457Z,0
2016-04-12T03:05:50.506Z,0
2016-04-12T03:07:03.259Z,0
2016-04-12T03:07:50.527Z,0
2016-04-12T03:09:09.764Z,0
2016-04-12T03:09:57.423Z,0
2016-04-12T03:11:16.254Z,0
2016-04-12T03:12:03.351Z,0
2016-04-12T03:12:50.651Z,0
2016-04-12T03:13:50.637Z,0
2016-04-12T03:14:50.625Z,0
2016-04-12T03:15:51.283Z,0
2016-04-12T03:16:50.676Z,0
2016-04-12T03:17:50.726Z,0
2016-04-12T03:19:03.431Z,0
2016-04-12T03:19:50.717Z,0
2016-04-12T03:20:50.735Z,0
2016-04-12T03:22:03.487Z,0
2016-04-12T03:22:50.865Z,0
2016-04-12T03:24:03.539Z,0
2016-04-12T03:24:50.933Z,0
2016-04-12T03:25:50.842Z,0
2016-04-12T03:26:50.969Z,0
2016-04-12T03:27:51.535Z,0
2016-04-12T03:28:57.146Z,0
2016-04-12T03:29:51.508Z,0
2016-04-12T03:31:03.668Z,0
2016-04-12T03:31:52.357Z,0
2016-04-12T03:33:47.941Z,0
2016-04-12T03:34:00.504Z,0
2016-04-12T03:35:00.522Z,0
2016-04-12T03:36:06.868Z,0
2016-04-12T03:37:07.434Z,0
2016-04-12T03:38:07.546Z,0
2016-04-12T03:39:00.596Z,0
2016-04-12T03:40:00.614Z,0
2016-04-12T03:41:06.148Z,0
2016-04-12T03:42:07.026Z,0
2016-04-12T03:43:13.418Z,0
2016-04-12T03:44:13.515Z,0
2016-04-12T03:45:13.471Z,0
2016-04-12T03:46:26.411Z,0
2016-04-12T03:47:13.648Z,0
2016-04-12T03:48:19.384Z,0
2016-04-12T03:49:51.297Z,0
2016-04-12T03:50:03.875Z,0
2016-04-12T03:51:03.908Z,0
2016-04-12T03:52:16.630Z,0
2016-04-12T03:53:10.383Z,0
2016-04-12T03:54:29.589Z,0
2016-04-12T03:55:04.717Z,0
2016-04-12T03:57:06.425Z,0
2016-04-12T03:57:18.988Z,0
2016-04-12T03:58:31.802Z,0
2016-04-12T03:59:25.415Z,0
2016-04-12T04:00:19.652Z,0
2016-04-12T04:01:38.266Z,0
2016-04-12T04:02:19.079Z,0
2016-04-12T04:04:16.085Z,0
2016-04-12T04:04:28.585Z,0
2016-04-12T04:05:41.418Z,0
2016-04-12T04:06:41.420Z,0
2016-04-12T04:07:28.717Z,0
2016-04-12T04:09:31.786Z,0
2016-04-12T04:10:31.804Z,0
2016-04-12T04:11:44.590Z,0
2016-04-12T04:12:44.593Z,0
2016-04-12T04:13:44.596Z,0
2016-04-12T04:14:44.614Z,0
2016-04-12T04:16:22.429Z,0
2016-04-12T04:16:34.976Z,0
2016-04-12T04:17:54.388Z,0
2016-04-12T04:18:35.201Z,0
2016-04-12T04:19:35.047Z,0
2016-04-12T04:20:47.786Z,0
2016-04-12T04:21:47.820Z,0
2016-04-12T04:22:54.417Z,0
2016-04-12T04:23:54.310Z,0
2016-04-12T04:25:32.156Z,0
2016-04-12T04:25:44.737Z,0
2016-04-12T04:27:35.256Z,0
2016-04-12T04:27:47.821Z,0
2016-04-12T04:29:19.152Z,0
2016-04-12T04:30:00.592Z,0
2016-04-12T04:30:47.891Z,0
2016-04-12T04:32:07.082Z,0
2016-04-12T04:32:47.835Z,0
2016-04-12T04:34:13.649Z,0
2016-04-12T04:35:00.668Z,0
2016-04-12T04:36:51.174Z,0
2016-04-12T04:37:22.971Z,0
2016-04-12T04:38:03.785Z,0
2016-04-12T04:39:29.444Z,0
2016-04-12T04:40:03.807Z,5
2016-04-12T04:41:10.527Z,5
2016-04-12T04:42:16.546Z,5
2016-04-12T04:43:16.830Z,5
2016-04-12T04:44:16.598Z,5
2016-04-12T04:47:23.137Z,10
2016-04-12T04:47:36.137Z,10
2016-04-12T04:49:38.318Z,10
2016-04-12T04:50:03.615Z,10
2016-04-12T04:50:50.914Z,10
2016-04-12T04:51:51.745Z,10
2016-04-12T04:52:51.544Z,10
2016-04-12T04:53:50.970Z,10
2016-04-12T04:55:03.706Z,15
2016-04-12T04:55:51.693Z,15
2016-04-12T04:57:16.695Z,15
2016-04-12T04:57:51.010Z,15
2016-04-12T04:59:22.498Z,20
2016-04-12T04:59:51.063Z,20
2016-04-12T05:00:51.128Z,20
2016-04-12T05:01:51.084Z,20
2016-04-12T05:02:51.165Z,25
2016-04-12T05:04:03.855Z,25
2016-04-12T05:05:03.905Z,25
2016-04-12T05:06:10.345Z,25
2016-04-12T05:07:10.285Z,30
2016-04-12T05:09:06.619Z,30
2016-04-12T05:09:31.916Z,25
2016-04-12T05:10:19.185Z,25
2016-04-12T05:12:09.745Z,30
2016-04-12T05:12:48.077Z,30
2016-04-12T05:13:35.155Z,35
2016-04-12T05:15:20.863Z,40
2016-04-12T05:15:52.663Z,45
2016-04-12T05:17:04.759Z,45
2016-04-12T05:17:42.825Z,45
2016-04-12T05:18:33.481Z,45
2016-04-12T05:19:49.361Z,45
2016-04-12T05:20:39.786Z,45
2016-04-12T05:21:59.288Z,45
2016-04-12T05:22:33.538Z,45
2016-04-12T05:24:30.544Z,45
2016-04-12T05:24:43.125Z,45
2016-04-12T05:27:24.130Z,50
2016-04-12T05:28:55.447Z,45
2016-04-12T05:30:04.966Z,45
2016-04-12T05:30:30.107Z,45
2016-04-12T05:32:14.518Z,45
2016-04-12T05:32:39.865Z,50
2016-04-12T05:34:29.710Z,55
2016-04-12T05:35:08.058Z,60
2016-04-12T05:35:42.295Z,60
2016-04-12T05:37:13.609Z,60
2016-04-12T05:37:42.316Z,60
2016-04-12T05:38:42.396Z,60
2016-04-12T05:39:42.337Z,60
2016-04-12T05:40:42.465Z,60
2016-04-12T05:41:55.154Z,65
2016-04-12T05:42:48.673Z,70
2016-04-12T05:44:01.612Z,75
2016-04-12T05:44:55.179Z,75
2016-04-12T05:46:08.243Z,70
2016-04-12T05:48:23.248Z,60
2016-04-12T05:49:16.955Z,60
2016-04-12T05:50:29.723Z,65
2016-04-12T05:51:29.710Z,65
2016-04-12T05:53:33.200Z,75
2016-04-12T05:54:11.453Z,75
2016-04-12T05:55:48.395Z,75
2016-04-12T05:56:20.145Z,75
2016-04-12T05:57:00.195Z,80
2016-04-12T05:58:58.013Z,80
2016-04-12T05:59:55.453Z,80
2016-04-12T06:00:10.578Z,80
2016-04-12T06:02:07.599Z,70
2016-04-12T06:02:20.177Z,70
2016-04-12T06:03:50.730Z,80
2016-04-12T06:04:32.917Z,90
2016-04-12T06:05:20.216Z,95
2016-04-12T06:06:39.441Z,100
2016-04-12T06:07:27.113Z,100
2016-04-12T06:08:45.805Z,100
2016-04-12T06:10:42.951Z,105
2016-04-12T06:10:55.701Z,105
2016-04-12T06:12:58.144Z,120
2016-04-12T06:13:36.472Z,120
2016-04-12T06:14:10.772Z,120
2016-04-12T06:16:13.465Z,125
2016-04-12T06:16:45.248Z,125
2016-04-12T06:17:26.045Z,125
2016-04-12T06:19:24.270Z,135
2016-04-12T06:20:21.709Z,140
2016-04-12T06:20:49.666Z,140
2016-04-12T06:22:33.856Z,145
2016-04-12T06:23:30.468Z,145
2016-04-12T06:24:17.752Z,150
2016-04-12T06:24:46.630Z,150
2016-04-12T06:26:17.789Z,160
2016-04-12T06:26:59.432Z,160
2016-04-12T06:29:05.813Z,150
2016-04-12T06:29:46.549Z,140
2016-04-12T06:31:37.974Z,135
2016-04-12T06:31:50.571Z,135
2016-04-12T06:33:41.076Z,140
2016-04-12T06:33:53.716Z,140
2016-04-12T06:34:53.704Z,140
2016-04-12T06:35:53.738Z,135
2016-04-12T06:36:53.693Z,135
2016-04-12T06:38:06.462Z,140
2016-04-12T06:38:53.730Z,150
2016-04-12T06:40:44.376Z,165
2016-04-12T06:42:50.568Z,170
2016-04-12T06:43:06.506Z,170
2016-04-12T06:44:25.853Z,180
2016-04-12T06:45:19.324Z,185
2016-04-12T06:46:25.842Z,195
2016-04-12T06:48:09.942Z,205
2016-04-12T06:50:25.790Z,225
2016-04-12T06:51:13.059Z,230
2016-04-12T06:52:13.078Z,240
2016-04-12T06:53:13.205Z,245
2016-04-12T06:54:13.145Z,250
2016-04-12T06:55:25.898Z,245
2016-04-12T06:56:19.479Z,240
2016-04-12T06:57:13.263Z,240
2016-04-12T06:59:16.330Z,225
2016-04-12T07:01:13.351Z,215
2016-04-12T07:01:26.038Z,215
2016-04-12T07:02:25.932Z,220
2016-04-12T07:03:29.310Z,240
2016-04-12T07:04:26.172Z,245
2016-04-12T07:05:45.208Z,265
2016-04-12T07:06:26.193Z,280
2016-04-12T07:07:38.774Z,305
2016-04-12T07:08:27.542Z,335
2016-04-12T07:09:26.060Z,355
2016-04-12T07:10:27.626Z,375
2016-04-12T07:11:26.096Z,390
2016-04-12T07:12:38.912Z,570
2016-04-12T07:13:38.884Z,385
2016-04-12T07:14:39.152Z,380
2016-04-12T07:16:16.860Z,895
2016-04-12T07:16:29.439Z,735
2016-04-12T07:17:29.442Z,1000
2016-04-12T07:18:29.459Z,1035
2016-04-12T07:19:35.759Z,1040
2016-04-12T07:20:30.106Z,1040
2016-04-12T07:21:29.671Z,1035
2016-04-12T07:22:42.301Z,1045
2016-04-12T07:23:30.254Z,1060
2016-04-12T07:24:29.694Z,1080
2016-04-12T07:25:42.356Z,1080
2016-04-12T07:26:30.262Z,1075
2016-04-12T07:27:32.687Z,1090
2016-04-12T07:28:29.830Z,1090
2016-04-12T07:29:29.708Z,1115
2016-04-12T07:30:35.977Z,1115
2016-04-12T07:31:29.744Z,1150
2016-04-12T07:32:42.625Z,1225
2016-04-12T07:33:29.844Z,895
2016-04-12T07:34:29.863Z,855
2016-04-12T07:35:36.130Z,545
2016-04-12T07:36:36.148Z,570
2016-04-12T07:37:42.654Z,870
2016-04-12T07:38:31.451Z,895
2016-04-12T07:39:49.160Z,670
2016-04-12T07:40:29.988Z,875
2016-04-12T07:41:36.256Z,690
2016-04-12T07:42:36.324Z,850
2016-04-12T07:43:49.442Z,1050
2016-04-12T07:44:31.582Z,1150
2016-04-12T07:46:27.262Z,1060
2016-04-12T07:46:39.841Z,785
2016-04-12T07:47:40.092Z,990
2016-04-12T07:48:46.240Z,740
2016-04-12T07:49:40.178Z,520
2016-04-12T07:50:52.781Z,490
2016-04-12T07:51:40.140Z,475
2016-04-12T07:52:52.981Z,455
2016-04-12T07:53:40.200Z,450
2016-04-12T07:54:40.208Z,445
2016-04-12T07:55:40.232Z,440
2016-04-12T07:56:40.366Z,430
2016-04-12T07:57:40.282Z,425
2016-04-12T07:58:46.588Z,425
2016-04-12T07:59:40.573Z,425
2016-04-12T08:00:53.160Z,425
2016-04-12T08:01:40.394Z,425
2016-04-12T08:02:53.231Z,425
2016-04-12T08:03:40.435Z,425
2016-04-12T08:04:40.657Z,425
2016-04-12T08:05:40.598Z,425
2016-04-12T08:06:46.777Z,425
2016-04-12T08:07:40.636Z,420
2016-04-12T08:08:40.581Z,415
2016-04-12T08:09:53.461Z,415
2016-04-12T08:10:40.602Z,415
2016-04-12T08:11:53.422Z,415
2016-04-12T08:12:46.939Z,415
2016-04-12T08:14:00.010Z,415
2016-04-12T08:14:53.419Z,410
2016-04-12T08:16:37.687Z,410
2016-04-12T08:16:56.644Z,410
2016-04-12T08:18:47.273Z,405
2016-04-12T08:18:59.835Z,405
2016-04-12T08:21:34.341Z,400
2016-04-12T08:22:15.141Z,400
2016-04-12T08:23:21.424Z,400
2016-04-12T08:24:25.319Z,400
2016-04-12T08:25:15.196Z,400
2016-04-12T08:26:21.745Z,400
2016-04-12T08:27:15.966Z,400
2016-04-12T08:28:34.469Z,405
2016-04-12T08:29:16.707Z,405
2016-04-12T08:30:34.522Z,405
2016-04-12T08:31:21.618Z,405
2016-04-12T08:32:34.590Z,410
2016-04-12T08:33:16.967Z,410
2016-04-12T08:34:34.798Z,405
2016-04-12T08:35:28.301Z,405
2016-04-12T08:37:06.790Z,405
2016-04-12T08:37:45.043Z,405
2016-04-12T08:38:45.078Z,400
2016-04-12T08:39:50.190Z,400
2016-04-12T08:40:19.409Z,400
2016-04-12T08:41:50.789Z,400
2016-04-12T08:42:32.211Z,400
2016-04-12T08:43:19.510Z,405
2016-04-12T08:44:38.716Z,395
2016-04-12T08:45:19.734Z,395
2016-04-12T08:47:16.739Z,385
2016-04-12T08:47:29.349Z,385
2016-04-12T08:48:29.602Z,390
2016-04-12T08:49:35.636Z,390
2016-04-12T08:50:35.716Z,390
2016-04-12T08:51:42.125Z,395
2016-04-12T08:52:35.925Z,395
2016-04-12T08:53:48.633Z,400
2016-04-12T08:54:42.258Z,410
2016-04-12T08:55:55.186Z,415
2016-04-12T08:56:29.514Z,415
2016-04-12T08:58:32.144Z,420
2016-04-12T08:58:44.913Z,420
2016-04-12T08:59:44.837Z,415
2016-04-12T09:00:45.090Z,415
2016-04-12T09:01:44.890Z,405
2016-04-12T09:02:45.704Z,400
2016-04-12T09:03:57.676Z,395
2016-04-12T09:04:57.725Z,395
2016-04-12T09:06:48.043Z,395
2016-04-12T09:07:48.140Z,395
2016-04-12T09:08:55.256Z,395
2016-04-12T09:09:48.165Z,390
2016-04-12T09:11:07.356Z,390
2016-04-12T09:11:48.765Z,390
2016-04-12T09:13:57.786Z,400
2016-04-12T09:16:01.025Z,400
2016-04-12T09:16:13.681Z,395
2016-04-12T09:17:13.622Z,395
2016-04-12T09:18:26.422Z,390
2016-04-12T09:19:13.814Z,385
2016-04-12T09:20:26.442Z,385
2016-04-12T09:21:26.538Z,380
2016-04-12T09:22:19.994Z,375
2016-04-12T09:23:33.013Z,370
2016-04-12T09:24:32.985Z,370
2016-04-12T09:25:34.487Z,365
2016-04-12T09:26:13.818Z,365
2016-04-12T09:28:16.448Z,370
2016-04-12T09:28:54.716Z,370
2016-04-12T09:29:29.060Z,370
2016-04-12T09:30:29.063Z,370
2016-04-12T09:31:28.972Z,370
2016-04-12T09:32:29.131Z,370
2016-04-12T09:33:29.931Z,375
2016-04-12T09:34:41.902Z,370
2016-04-12T09:35:29.265Z,370
2016-04-12T09:36:48.410Z,380
2016-04-12T09:37:29.863Z,375
2016-04-12T09:39:00.572Z,370
2016-04-12T09:39:42.056Z,370
2016-04-12T09:40:29.309Z,370
2016-04-12T09:41:29.328Z,375
2016-04-12T09:42:30.017Z,370
2016-04-12T09:43:30.036Z,375
2016-04-12T09:44:29.913Z,375
2016-04-12T09:45:28.822Z,380
2016-04-12T09:46:42.262Z,370
2016-04-12T09:47:29.609Z,375
2016-04-12T09:48:48.864Z,370
2016-04-12T09:49:29.927Z,370
2016-04-12T09:50:55.229Z,375
2016-04-12T09:51:30.260Z,375
2016-04-12T09:53:26.562Z,385
2016-04-12T09:53:39.140Z,385
2016-04-12T09:55:10.458Z,380
2016-04-12T09:55:39.177Z,380
2016-04-12T09:57:11.120Z,375
2016-04-12T09:57:52.185Z,370
2016-04-12T09:59:58.504Z,380
2016-04-12T10:00:39.332Z,390
2016-04-12T10:02:36.962Z,390
2016-04-12T10:02:49.620Z,390
2016-04-12T10:03:49.560Z,395
2016-04-12T10:04:49.782Z,400
2016-04-12T10:06:02.394Z,415
2016-04-12T10:06:56.007Z,405
2016-04-12T10:08:02.509Z,395
2016-04-12T10:08:49.731Z,390
2016-04-12T10:10:08.905Z,370
2016-04-12T10:10:55.829Z,365
2016-04-12T10:12:41.192Z,395
2016-04-12T10:12:53.741Z,410
2016-04-12T10:14:56.449Z,450
2016-04-12T10:15:09.027Z,455
2016-04-12T10:16:09.047Z,440
2016-04-12T10:17:09.674Z,430
2016-04-12T10:18:09.270Z,400
2016-04-12T10:19:16.038Z,385
2016-04-12T10:20:09.260Z,395
2016-04-12T10:21:10.606Z,400
2016-04-12T10:22:21.938Z,410
2016-04-12T10:23:09.206Z,415
2016-04-12T10:24:21.989Z,440
2016-04-12T10:25:22.007Z,485
2016-04-12T10:26:22.041Z,520
2016-04-12T10:27:09.310Z,550
2016-04-12T10:28:28.532Z,635
2016-04-12T10:29:09.362Z,650
2016-04-12T10:30:40.693Z,655
2016-04-12T10:31:15.680Z,640
2016-04-12T10:32:09.417Z,615
2016-04-12T10:33:15.732Z,560
2016-04-12T10:34:09.470Z,525
2016-04-12T10:35:22.268Z,490
2016-04-12T10:36:11.507Z,465
2016-04-12T10:37:35.196Z,425
2016-04-12T10:38:22.324Z,410
2016-04-12T10:39:09.608Z,405
2016-04-12T10:40:28.970Z,390
2016-04-12T10:41:09.659Z,390
2016-04-12T10:43:01.026Z,395
2016-04-12T10:43:13.620Z,400
2016-04-12T10:44:32.825Z,410
2016-04-12T10:45:13.687Z,415
2016-04-12T10:47:16.301Z,445
2016-04-12T10:47:28.739Z,450
2016-04-12T10:48:28.914Z,455
2016-04-12T10:49:35.198Z,445
2016-04-12T10:50:35.216Z,435
2016-04-12T10:51:36.640Z,425
2016-04-12T10:52:41.737Z,410
2016-04-12T10:53:32.036Z,400
2016-04-12T10:54:30.461Z,395
2016-04-12T10:55:41.823Z,395
2016-04-12T10:56:29.154Z,390
2016-04-12T10:57:48.125Z,395
2016-04-12T10:58:30.018Z,390
2016-04-12T10:59:54.899Z,375
2016-04-12T11:00:29.211Z,370
2016-04-12T11:01:29.370Z,345
2016-04-12T11:02:29.295Z,320
2016-04-12T11:03:42.032Z,295
2016-04-12T11:04:29.300Z,285
2016-04-12T11:05:54.290Z,260
2016-04-12T11:06:42.102Z,245
2016-04-12T11:07:55.123Z,235
2016-04-12T11:08:29.404Z,220
2016-04-12T11:09:30.049Z,215
2016-04-12T11:10:29.457Z,205
2016-04-12T11:11:37.178Z,205
2016-04-12T11:12:29.525Z,210
2016-04-12T11:13:42.277Z,225
2016-04-12T11:14:29.656Z,230
2016-04-12T11:15:48.801Z,230
2016-04-12T11:16:36.098Z,225
2016-04-12T11:17:30.319Z,215
2016-04-12T11:18:36.150Z,215
2016-04-12T11:19:42.434Z,230
2016-04-12T11:20:42.499Z,230
2016-04-12T11:21:29.705Z,225
2016-04-12T11:22:29.770Z,225
2016-04-12T11:23:42.555Z,225
2016-04-12T11:24:30.198Z,225
2016-04-12T11:26:20.344Z,230
2016-04-12T11:26:45.688Z,235
2016-04-12T11:27:52.146Z,245
2016-04-12T11:28:33.052Z,250
2016-04-12T11:29:52.105Z,275
2016-04-12T11:30:32.996Z,290
2016-04-12T11:31:33.155Z,325
2016-04-12T11:32:33.156Z,350
2016-04-12T11:33:45.879Z,380
2016-04-12T11:34:33.147Z,400
2016-04-12T11:35:33.165Z,435
2016-04-12T11:36:33.168Z,485
2016-04-12T11:37:45.935Z,535
2016-04-12T11:38:39.470Z,565
2016-04-12T11:39:52.475Z,585
2016-04-12T11:40:33.272Z,605
2016-04-12T11:41:58.980Z,600
2016-04-12T11:42:33.292Z,575
2016-04-12T11:43:46.108Z,540
2016-04-12T11:44:32.737Z,515
2016-04-12T11:45:33.567Z,485
2016-04-12T11:46:33.459Z,470
2016-04-12T11:47:46.212Z,450
2016-04-12T11:48:34.090Z,445
2016-04-12T11:49:46.297Z,440
2016-04-12T11:50:33.517Z,450
2016-04-12T11:51:33.848Z,460
2016-04-12T11:52:39.866Z,480
2016-04-12T11:53:34.400Z,490
2016-04-12T11:54:46.372Z,490
2016-04-12T11:55:35.250Z,485
2016-04-12T11:56:52.911Z,475
2016-04-12T11:57:36.771Z,455
2016-04-12T11:59:36.355Z,430
2016-04-12T11:59:48.964Z,425
2016-04-12T12:00:48.936Z,420
2016-04-12T12:01:48.969Z,420
2016-04-12T12:02:49.019Z,425
2016-04-12T12:04:01.743Z,445
2016-04-12T12:04:49.055Z,445
2016-04-12T12:06:08.357Z,435
2016-04-12T12:06:49.154Z,425
2016-04-12T12:08:51.803Z,400
2016-04-12T12:09:04.381Z,395
2016-04-12T12:10:04.431Z,385
2016-04-12T12:11:04.276Z,380
2016-04-12T12:12:17.264Z,385
2016-04-12T12:13:10.768Z,385
2016-04-12T12:14:23.723Z,390
2016-04-12T12:15:23.725Z,400
2016-04-12T12:17:01.528Z,415
2016-04-12T12:17:33.153Z,425
2016-04-12T12:18:45.421Z,415
2016-04-12T12:19:26.878Z,400
2016-04-12T12:21:11.164Z,390
2016-04-12T12:21:29.992Z,385
2016-04-12T12:23:26.388Z,370
2016-04-12T12:23:38.966Z,370
2016-04-12T12:24:39.016Z,360
2016-04-12T12:25:45.269Z,350
2016-04-12T12:26:45.317Z,340
2016-04-12T12:27:51.883Z,330
2016-04-12T12:29:55.282Z,325
2016-04-12T12:30:07.938Z,325
2016-04-12T12:31:07.863Z,335
2016-04-12T12:32:14.380Z,350
2016-04-12T12:33:14.415Z,360
2016-04-12T12:34:20.589Z,375
2016-04-12T12:35:27.201Z,405
2016-04-12T12:36:08.001Z,415
2016-04-12T12:38:05.007Z,460
2016-04-12T12:38:17.585Z,465
2016-04-12T12:39:36.821Z,495
2016-04-12T12:40:18.324Z,505
2016-04-12T12:42:16.079Z,535
2016-04-12T12:42:28.673Z,545
2016-04-12T12:44:19.210Z,545
2016-04-12T12:44:50.835Z,545
2016-04-12T12:45:51.026Z,540
2016-04-12T12:46:32.590Z,535
2016-04-12T12:48:28.892Z,520
2016-04-12T12:49:00.692Z,515
2016-04-12T12:51:10.307Z,500
2016-04-12T12:51:44.682Z,495
2016-04-12T12:53:15.968Z,500
2016-04-12T12:53:44.671Z,505
2016-04-12T12:54:44.736Z,510
2016-04-12T12:55:57.523Z,515
2016-04-12T12:56:57.494Z,505
2016-04-12T12:57:44.869Z,495
2016-04-12T12:58:44.825Z,495
2016-04-12T12:59:51.110Z,470
2016-04-12T13:00:45.002Z,460
2016-04-12T13:01:45.349Z,445
2016-04-12T13:02:58.073Z,425
2016-04-12T13:03:51.198Z,415
2016-04-12T13:05:35.469Z,400
2016-04-12T13:06:07.237Z,395
2016-04-12T13:07:13.818Z,390
2016-04-12T13:07:54.384Z,385
2016-04-12T13:09:19.435Z,380
2016-04-12T13:09:48.185Z,380
2016-04-12T13:11:50.785Z,385
2016-04-12T13:12:03.366Z,380
2016-04-12T13:13:03.510Z,380
2016-04-12T13:14:04.856Z,380
2016-04-12T13:15:03.577Z,380
2016-04-12T13:16:03.470Z,385
2016-04-12T13:17:03.552Z,390
2016-04-12T13:18:03.538Z,390
2016-04-12T13:19:03.557Z,395
2016-04-12T13:20:03.576Z,405
2016-04-12T13:21:03.626Z,420
2016-04-12T13:22:16.424Z,430
2016-04-12T13:23:03.614Z,445
2016-04-12T13:24:22.884Z,465
2016-04-12T13:25:16.448Z,470
2016-04-12T13:26:54.545Z,480
2016-04-12T13:27:07.156Z,480
2016-04-12T13:28:38.503Z,480
2016-04-12T13:29:20.036Z,480
2016-04-12T13:30:07.228Z,480
2016-04-12T13:31:57.889Z,490
2016-04-12T13:33:45.797Z,495
2016-04-12T13:34:32.050Z,490
2016-04-12T13:35:51.505Z,480
2016-04-12T13:36:46.025Z,475
2016-04-12T13:37:20.277Z,475
2016-04-12T13:38:51.592Z,475
2016-04-12T13:39:26.610Z,480
2016-04-12T13:40:20.332Z,480
2016-04-12T13:41:20.350Z,480
2016-04-12T13:42:33.102Z,485
2016-04-12T13:43:20.714Z,475
2016-04-12T13:44:46.560Z,455
2016-04-12T13:45:21.860Z,450
2016-04-12T13:47:23.172Z,415
2016-04-12T13:47:35.672Z,410
2016-04-12T13:48:35.659Z,395
2016-04-12T13:49:36.522Z,385
2016-04-12T13:50:37.118Z,380
2016-04-12T13:51:48.433Z,375
2016-04-12T13:52:55.061Z,360
2016-04-12T13:53:35.844Z,355
2016-04-12T13:55:38.413Z,350
2016-04-12T13:55:50.975Z,345
2016-04-12T13:56:51.243Z,325
2016-04-12T13:57:51.184Z,300
2016-04-12T13:59:03.829Z,280
2016-04-12T13:59:51.126Z,275
2016-04-12T14:01:10.570Z,270
2016-04-12T14:01:51.226Z,270
2016-04-12T14:03:53.793Z,285
2016-04-12T14:04:32.078Z,285
2016-04-12T14:05:06.409Z,290
2016-04-12T14:07:03.600Z,305
2016-04-12T14:07:16.241Z,305
2016-04-12T14:08:47.525Z,315
2016-04-12T14:09:16.231Z,315
2016-04-12T14:10:47.562Z,310
2016-04-12T14:11:16.300Z,310
2016-04-12T14:12:16.318Z,310
2016-04-12T14:13:22.633Z,310
2016-04-12T14:14:16.355Z,325
2016-04-12T14:15:16.388Z,330
2016-04-12T14:16:16.422Z,330
2016-04-12T14:17:16.455Z,325
2016-04-12T14:18:16.599Z,325
2016-04-12T14:19:16.524Z,325
2016-04-12T14:20:22.807Z,330
2016-04-12T14:21:16.561Z,340
2016-04-12T14:22:29.329Z,345
2016-04-12T14:23:16.582Z,350
2016-04-12T14:25:19.524Z,335
2016-04-12T14:26:19.543Z,330
2016-04-12T14:27:19.671Z,335
2016-04-12T14:28:19.579Z,340
2016-04-12T14:29:21.067Z,330
2016-04-12T14:30:19.648Z,325
2016-04-12T14:31:38.885Z,315
2016-04-12T14:32:19.685Z,310
2016-04-12T14:33:32.452Z,310
2016-04-12T14:34:19.737Z,305
2016-04-12T14:35:32.551Z,305
2016-04-12T14:36:19.882Z,300
2016-04-12T14:37:19.837Z,295
2016-04-12T14:38:19.934Z,290
2016-04-12T14:39:19.890Z,290
2016-04-12T14:40:20.503Z,285
2016-04-12T14:41:32.803Z,275
2016-04-12T14:42:20.664Z,270